sensor_id;sensor_type;location;lat;lon;timestamp;pressure;altitude;pressure_sealevel;temperature;humidity
47524;BME280;33253;42.144;25.884;2023-02-02T00:00:34;100585.09;;;0.66;100.00
47524;BME280;33253;42.144;25.884;2023-02-02T00:03:00;100591.63;;;0.74;100.00
47524;BME280;33253;42.144;25.884;2023-02-02T00:05:25;100595.31;;;0.78;100.00
47524;BME280;33253;42.144;25.884;2023-02-02T00:07:51;100582.06;;;0.60;100.00
47524;BME280;33253;42.144;25.884;2023-02-02T00:10:17;100592.44;;;0.63;100.00
47524;BME280;33253;42.144;25.884;2023-02-02T00:12:42;100580.66;;;0.53;100.00
47524;BME280;33253;42.144;25.884;2023-02-02T00:15:09;100448.81;;;-0.21;100.00
47524;BME280;33253;42.144;25.884;2023-02-02T00:17:34;100514.03;;;0.13;100.00
47524;BME280;33253;42.144;25.884;2023-02-02T00:20:00;100540.16;;;0.22;100.00
47524;BME280;33253;42.144;25.884;2023-02-02T00:22:25;100589.69;;;0.50;100.00
47524;BME280;33253;42.144;25.884;2023-02-02T00:24:52;100576.22;;;0.51;100.00
47524;BME280;33253;42.144;25.884;2023-02-02T00:27:17;100568.13;;;0.44;100.00
47524;BME280;33253;42.144;25.884;2023-02-02T00:29:43;100580.06;;;0.45;100.00
47524;BME280;33253;42.144;25.884;2023-02-02T00:32:08;100595.69;;;0.50;100.00
47524;BME280;33253;42.144;25.884;2023-02-02T00:34:34;100529.53;;;0.06;100.00
47524;BME280;33253;42.144;25.884;2023-02-02T00:36:59;100594.28;;;0.43;100.00
47524;BME280;33253;42.144;25.884;2023-02-02T00:39:25;100594.56;;;0.46;100.00
47524;BME280;33253;42.144;25.884;2023-02-02T00:41:51;100591.16;;;0.36;100.00
47524;BME280;33253;42.144;25.884;2023-02-02T00:44:16;100592.66;;;0.34;100.00
47524;BME280;33253;42.144;25.884;2023-02-02T00:47:00;100588.66;;;0.25;100.00
47524;BME280;33253;42.144;25.884;2023-02-02T00:49:26;100561.38;;;0.12;100.00
47524;BME280;33253;42.144;25.884;2023-02-02T00:51:51;100600.03;;;0.41;100.00
47524;BME280;33253;42.144;25.884;2023-02-02T00:54:16;100583.91;;;0.40;100.00
47524;BME280;33253;42.144;25.884;2023-02-02T00:56:42;100598.22;;;0.50;100.00
47524;BME280;33253;42.144;25.884;2023-02-02T00:59:08;100589.41;;;0.57;100.00
47524;BME280;33253;42.144;25.884;2023-02-02T01:01:34;100581.81;;;0.57;100.00
47524;BME280;33253;42.144;25.884;2023-02-02T01:03:59;100585.19;;;0.68;100.00
47524;BME280;33253;42.144;25.884;2023-02-02T01:06:25;100592.53;;;0.75;100.00
47524;BME280;33253;42.144;25.884;2023-02-02T01:08:51;100588.97;;;0.73;100.00
47524;BME280;33253;42.144;25.884;2023-02-02T01:11:17;100579.41;;;0.80;100.00
47524;BME280;33253;42.144;25.884;2023-02-02T01:13:43;100582.19;;;0.84;100.00
47524;BME280;33253;42.144;25.884;2023-02-02T01:16:09;100586.81;;;0.77;100.00
47524;BME280;33253;42.144;25.884;2023-02-02T01:18:35;100593.41;;;0.75;100.00
47524;BME280;33253;42.144;25.884;2023-02-02T01:21:08;100542.19;;;0.48;100.00
47524;BME280;33253;42.144;25.884;2023-02-02T01:23:35;100586.59;;;0.64;100.00
47524;BME280;33253;42.144;25.884;2023-02-02T01:26:04;100590.44;;;0.59;100.00
47524;BME280;33253;42.144;25.884;2023-02-02T01:28:30;100575.47;;;0.52;100.00
47524;BME280;33253;42.144;25.884;2023-02-02T01:31:17;100578.06;;;0.63;100.00
47524;BME280;33253;42.144;25.884;2023-02-02T01:33:44;100533.88;;;0.39;100.00
47524;BME280;33253;42.144;25.884;2023-02-02T01:36:13;100584.13;;;0.76;100.00
47524;BME280;33253;42.144;25.884;2023-02-02T01:38:39;100586.25;;;0.82;100.00
47524;BME280;33253;42.144;25.884;2023-02-02T01:41:04;100582.97;;;0.83;100.00
47524;BME280;33253;42.144;25.884;2023-02-02T01:46:16;100593.34;;;0.86;100.00
47524;BME280;33253;42.144;25.884;2023-02-02T01:48:47;100585.72;;;0.86;100.00
47524;BME280;33253;42.144;25.884;2023-02-02T01:51:19;100590.53;;;0.93;100.00
47524;BME280;33253;42.144;25.884;2023-02-02T01:53:46;100593.94;;;0.93;100.00
47524;BME280;33253;42.144;25.884;2023-02-02T01:56:23;100590.91;;;0.87;100.00
47524;BME280;33253;42.144;25.884;2023-02-02T01:58:49;100586.44;;;0.95;100.00
47524;BME280;33253;42.144;25.884;2023-02-02T02:01:15;100563.13;;;0.78;100.00
47524;BME280;33253;42.144;25.884;2023-02-02T02:03:41;100586.31;;;0.93;100.00
47524;BME280;33253;42.144;25.884;2023-02-02T02:06:14;100575.97;;;1.02;100.00
47524;BME280;33253;42.144;25.884;2023-02-02T02:08:58;100591.66;;;1.19;100.00
47524;BME280;33253;42.144;25.884;2023-02-02T02:11:25;100540.03;;;0.98;100.00
47524;BME280;33253;42.144;25.884;2023-02-02T02:13:53;100586.13;;;1.24;100.00
47524;BME280;33253;42.144;25.884;2023-02-02T02:28:33;100572.84;;;0.94;100.00
47524;BME280;33253;42.144;25.884;2023-02-02T02:31:37;100567.47;;;1.02;100.00
47524;BME280;33253;42.144;25.884;2023-02-02T02:34:18;100574.25;;;1.13;100.00
47524;BME280;33253;42.144;25.884;2023-02-02T02:36:50;100572.28;;;1.21;100.00
47524;BME280;33253;42.144;25.884;2023-02-02T02:39:30;100563.59;;;1.29;100.00
47524;BME280;33253;42.144;25.884;2023-02-02T02:42:03;100573.47;;;1.36;100.00
47524;BME280;33253;42.144;25.884;2023-02-02T02:44:32;100589.50;;;1.35;100.00
47524;BME280;33253;42.144;25.884;2023-02-02T02:46:59;100576.97;;;1.38;100.00
47524;BME280;33253;42.144;25.884;2023-02-02T02:49:25;100569.34;;;1.38;100.00
47524;BME280;33253;42.144;25.884;2023-02-02T02:51:52;100572.53;;;1.24;100.00
47524;BME280;33253;42.144;25.884;2023-02-02T02:54:26;100571.34;;;1.08;100.00
47524;BME280;33253;42.144;25.884;2023-02-02T03:08:26;100616.44;;;1.33;100.00
47524;BME280;33253;42.144;25.884;2023-02-02T03:10:55;100615.31;;;1.29;100.00
47524;BME280;33253;42.144;25.884;2023-02-02T03:13:22;100623.88;;;1.30;100.00
47524;BME280;33253;42.144;25.884;2023-02-02T03:15:48;100611.75;;;1.16;100.00
47524;BME280;33253;42.144;25.884;2023-02-02T03:18:18;100615.84;;;1.13;100.00
47524;BME280;33253;42.144;25.884;2023-02-02T03:20:45;100608.88;;;1.11;100.00
47524;BME280;33253;42.144;25.884;2023-02-02T03:23:11;100599.78;;;1.15;100.00
47524;BME280;33253;42.144;25.884;2023-02-02T03:25:38;100592.81;;;1.12;100.00
47524;BME280;33253;42.144;25.884;2023-02-02T03:28:03;100587.06;;;1.15;100.00
47524;BME280;33253;42.144;25.884;2023-02-02T03:30:30;100591.84;;;1.10;100.00
47524;BME280;33253;42.144;25.884;2023-02-02T03:32:56;100572.84;;;0.94;100.00
47524;BME280;33253;42.144;25.884;2023-02-02T03:35:21;100584.38;;;1.01;100.00
47524;BME280;33253;42.144;25.884;2023-02-02T03:37:47;100582.03;;;0.92;100.00
47524;BME280;33253;42.144;25.884;2023-02-02T03:40:14;100574.63;;;0.95;100.00
47524;BME280;33253;42.144;25.884;2023-02-02T03:42:39;100583.94;;;1.07;100.00
47524;BME280;33253;42.144;25.884;2023-02-02T03:45:05;100584.19;;;1.10;100.00
47524;BME280;33253;42.144;25.884;2023-02-02T03:47:31;100586.28;;;1.04;100.00
47524;BME280;33253;42.144;25.884;2023-02-02T03:49:57;100539.28;;;0.76;100.00
47524;BME280;33253;42.144;25.884;2023-02-02T03:52:23;100592.53;;;0.97;100.00
47524;BME280;33253;42.144;25.884;2023-02-02T03:54:50;100594.84;;;0.94;100.00
47524;BME280;33253;42.144;25.884;2023-02-02T03:57:15;100547.84;;;0.67;100.00
47524;BME280;33253;42.144;25.884;2023-02-02T03:59:41;100550.38;;;0.67;100.00
47524;BME280;33253;42.144;25.884;2023-02-02T04:02:06;100578.47;;;0.90;100.00
47524;BME280;33253;42.144;25.884;2023-02-02T04:04:32;100563.78;;;0.98;100.00
47524;BME280;33253;42.144;25.884;2023-02-02T04:06:57;100571.25;;;1.07;100.00
47524;BME280;33253;42.144;25.884;2023-02-02T04:09:23;100579.44;;;1.15;100.00
47524;BME280;33253;42.144;25.884;2023-02-02T04:11:50;100558.63;;;1.08;100.00
47524;BME280;33253;42.144;25.884;2023-02-02T04:14:15;100573.94;;;1.20;100.00
47524;BME280;33253;42.144;25.884;2023-02-02T04:16:41;100566.91;;;1.28;100.00
47524;BME280;33253;42.144;25.884;2023-02-02T04:19:07;100579.53;;;1.38;100.00
47524;BME280;33253;42.144;25.884;2023-02-02T04:21:32;100573.47;;;1.36;100.00
47524;BME280;33253;42.144;25.884;2023-02-02T04:23:59;100566.59;;;1.35;100.00
47524;BME280;33253;42.144;25.884;2023-02-02T04:26:25;100573.16;;;1.43;100.00
47524;BME280;33253;42.144;25.884;2023-02-02T04:28:51;100580.66;;;1.42;100.00
47524;BME280;33253;42.144;25.884;2023-02-02T04:31:17;100585.69;;;1.52;100.00
47524;BME280;33253;42.144;25.884;2023-02-02T04:33:43;100578.75;;;1.39;100.00
47524;BME280;33253;42.144;25.884;2023-02-02T04:36:08;100590.81;;;1.30;100.00
47524;BME280;33253;42.144;25.884;2023-02-02T04:38:34;100580.72;;;1.20;100.00
47524;BME280;33253;42.144;25.884;2023-02-02T04:41:05;100527.03;;;0.83;100.00
47524;BME280;33253;42.144;25.884;2023-02-02T04:43:33;100585.53;;;0.94;100.00
47524;BME280;33253;42.144;25.884;2023-02-02T04:45:58;100588.72;;;0.70;100.00
47524;BME280;33253;42.144;25.884;2023-02-02T04:48:25;100587.63;;;0.56;100.00
47524;BME280;33253;42.144;25.884;2023-02-02T04:50:57;100565.16;;;0.28;100.00
47524;BME280;33253;42.144;25.884;2023-02-02T04:53:23;100589.63;;;0.38;100.00
47524;BME280;33253;42.144;25.884;2023-02-02T04:55:48;100595.50;;;0.26;100.00
47524;BME280;33253;42.144;25.884;2023-02-02T04:58:14;100603.28;;;0.07;100.00
47524;BME280;33253;42.144;25.884;2023-02-02T05:00:39;100596.06;;;-0.09;100.00
47524;BME280;33253;42.144;25.884;2023-02-02T05:03:05;100554.13;;;-0.46;100.00
47524;BME280;33253;42.144;25.884;2023-02-02T05:05:30;100601.56;;;-0.25;100.00
47524;BME280;33253;42.144;25.884;2023-02-02T05:07:56;100605.59;;;-0.27;100.00
47524;BME280;33253;42.144;25.884;2023-02-02T05:10:21;100584.44;;;-0.27;100.00
47524;BME280;33253;42.144;25.884;2023-02-02T05:12:47;100582.63;;;-0.18;100.00
47524;BME280;33253;42.144;25.884;2023-02-02T05:15:12;100600.63;;;0.06;100.00
47524;BME280;33253;42.144;25.884;2023-02-02T05:17:38;100606.84;;;0.09;100.00
47524;BME280;33253;42.144;25.884;2023-02-02T05:20:03;100598.69;;;0.24;100.00
47524;BME280;33253;42.144;25.884;2023-02-02T05:22:30;100557.09;;;0.11;100.00
47524;BME280;33253;42.144;25.884;2023-02-02T05:24:55;100588.34;;;0.43;100.00
47524;BME280;33253;42.144;25.884;2023-02-02T05:27:21;100579.19;;;0.45;100.00
47524;BME280;33253;42.144;25.884;2023-02-02T05:29:47;100585.38;;;0.48;100.00
47524;BME280;33253;42.144;25.884;2023-02-02T05:32:12;100572.44;;;0.45;100.00
47524;BME280;33253;42.144;25.884;2023-02-02T05:34:37;100591.09;;;0.56;100.00
47524;BME280;33253;42.144;25.884;2023-02-02T05:37:03;100560.69;;;0.36;100.00
47524;BME280;33253;42.144;25.884;2023-02-02T05:39:28;100594.75;;;0.60;100.00
47524;BME280;33253;42.144;25.884;2023-02-02T05:41:54;100598.31;;;0.84;100.00
47524;BME280;33253;42.144;25.884;2023-02-02T05:44:19;100596.31;;;1.02;100.00
47524;BME280;33253;42.144;25.884;2023-02-02T05:46:45;100593.81;;;1.14;100.00
47524;BME280;33253;42.144;25.884;2023-02-02T05:49:12;100598.97;;;1.26;100.00
47524;BME280;33253;42.144;25.884;2023-02-02T05:51:47;100533.59;;;0.91;100.00
47524;BME280;33253;42.144;25.884;2023-02-02T05:54:14;100609.94;;;1.37;100.00
47524;BME280;33253;42.144;25.884;2023-02-02T05:56:44;100600.69;;;1.37;100.00
47524;BME280;33253;42.144;25.884;2023-02-02T05:59:09;100602.78;;;1.43;100.00
47524;BME280;33253;42.144;25.884;2023-02-02T06:01:38;100606.28;;;1.33;100.00
47524;BME280;33253;42.144;25.884;2023-02-02T06:04:03;100605.91;;;1.51;100.00
47524;BME280;33253;42.144;25.884;2023-02-02T06:06:28;100605.38;;;1.55;100.00
47524;BME280;33253;42.144;25.884;2023-02-02T06:08:54;100607.94;;;1.55;100.00
47524;BME280;33253;42.144;25.884;2023-02-02T06:11:22;100611.59;;;1.58;100.00
47524;BME280;33253;42.144;25.884;2023-02-02T06:13:47;100619.31;;;1.60;100.00
47524;BME280;33253;42.144;25.884;2023-02-02T06:16:13;100607.63;;;1.62;100.00
47524;BME280;33253;42.144;25.884;2023-02-02T06:18:39;100617.41;;;1.80;100.00
47524;BME280;33253;42.144;25.884;2023-02-02T06:21:05;100615.63;;;1.90;100.00
47524;BME280;33253;42.144;25.884;2023-02-02T06:23:31;100561.38;;;1.68;100.00
47524;BME280;33253;42.144;25.884;2023-02-02T06:25:58;100615.34;;;2.09;100.00
47524;BME280;33253;42.144;25.884;2023-02-02T06:28:23;100610.47;;;2.24;100.00
47524;BME280;33253;42.144;25.884;2023-02-02T06:30:49;100608.69;;;2.35;100.00
47524;BME280;33253;42.144;25.884;2023-02-02T06:33:14;100623.88;;;2.46;100.00
47524;BME280;33253;42.144;25.884;2023-02-02T06:35:40;100629.84;;;2.58;100.00
47524;BME280;33253;42.144;25.884;2023-02-02T06:38:05;100631.81;;;2.74;100.00
47524;BME280;33253;42.144;25.884;2023-02-02T06:40:31;100634.44;;;2.87;100.00
47524;BME280;33253;42.144;25.884;2023-02-02T06:43:00;100626.13;;;3.02;100.00
47524;BME280;33253;42.144;25.884;2023-02-02T06:45:27;100621.72;;;3.13;100.00
47524;BME280;33253;42.144;25.884;2023-02-02T06:47:53;100567.53;;;3.03;100.00
47524;BME280;33253;42.144;25.884;2023-02-02T06:50:18;100621.97;;;3.41;100.00
47524;BME280;33253;42.144;25.884;2023-02-02T06:52:50;100602.47;;;3.42;100.00
47524;BME280;33253;42.144;25.884;2023-02-02T06:55:16;100623.31;;;3.61;100.00
47524;BME280;33253;42.144;25.884;2023-02-02T06:57:42;100582.56;;;3.49;99.70
47524;BME280;33253;42.144;25.884;2023-02-02T07:00:08;100627.00;;;3.78;99.76
47524;BME280;33253;42.144;25.884;2023-02-02T07:02:34;100625.19;;;3.89;99.63
47524;BME280;33253;42.144;25.884;2023-02-02T07:05:00;100616.16;;;3.94;99.10
47524;BME280;33253;42.144;25.884;2023-02-02T07:07:25;100592.53;;;3.85;99.40
47524;BME280;33253;42.144;25.884;2023-02-02T07:09:50;100627.56;;;4.13;99.25
47524;BME280;33253;42.144;25.884;2023-02-02T07:12:16;100601.53;;;4.05;99.56
47524;BME280;33253;42.144;25.884;2023-02-02T07:14:43;100614.59;;;4.23;98.73
47524;BME280;33253;42.144;25.884;2023-02-02T07:17:09;100622.75;;;4.31;98.47
47524;BME280;33253;42.144;25.884;2023-02-02T07:19:35;100630.91;;;4.38;98.75
47524;BME280;33253;42.144;25.884;2023-02-02T07:22:00;100622.16;;;4.48;98.58
47524;BME280;33253;42.144;25.884;2023-02-02T07:24:26;100617.66;;;4.58;98.56
47524;BME280;33253;42.144;25.884;2023-02-02T07:26:52;100618.72;;;4.61;97.63
47524;BME280;33253;42.144;25.884;2023-02-02T07:29:17;100617.25;;;4.65;98.01
47524;BME280;33253;42.144;25.884;2023-02-02T07:31:42;100617.53;;;4.69;97.14
47524;BME280;33253;42.144;25.884;2023-02-02T07:34:08;100613.69;;;4.76;96.90
47524;BME280;33253;42.144;25.884;2023-02-02T07:36:34;100625.66;;;4.91;96.84
47524;BME280;33253;42.144;25.884;2023-02-02T07:38:59;100624.50;;;4.85;96.23
47524;BME280;33253;42.144;25.884;2023-02-02T07:41:28;100620.84;;;4.95;96.37
47524;BME280;33253;42.144;25.884;2023-02-02T07:43:53;100598.78;;;4.97;96.54
47524;BME280;33253;42.144;25.884;2023-02-02T07:46:19;100585.81;;;4.94;96.73
47524;BME280;33253;42.144;25.884;2023-02-02T07:48:45;100626.75;;;5.23;97.01
47524;BME280;33253;42.144;25.884;2023-02-02T07:51:13;100631.56;;;5.31;95.67
47524;BME280;33253;42.144;25.884;2023-02-02T07:53:42;100631.06;;;5.37;95.69
47524;BME280;33253;42.144;25.884;2023-02-02T07:56:13;100625.97;;;5.52;95.46
47524;BME280;33253;42.144;25.884;2023-02-02T07:58:39;100514.06;;;4.93;94.87
47524;BME280;33253;42.144;25.884;2023-02-02T08:01:07;100619.97;;;5.66;93.85
47524;BME280;33253;42.144;25.884;2023-02-02T08:03:33;100622.91;;;5.73;94.13
47524;BME280;33253;42.144;25.884;2023-02-02T08:05:59;100576.59;;;5.55;93.05
47524;BME280;33253;42.144;25.884;2023-02-02T08:08:25;100629.81;;;5.89;93.05
47524;BME280;33253;42.144;25.884;2023-02-02T08:10:52;100600.03;;;5.76;93.77
47524;BME280;33253;42.144;25.884;2023-02-02T08:13:18;100635.75;;;6.03;92.05
47524;BME280;33253;42.144;25.884;2023-02-02T08:15:45;100637.03;;;6.09;93.28
47524;BME280;33253;42.144;25.884;2023-02-02T08:18:10;100602.53;;;6.04;92.62
47524;BME280;33253;42.144;25.884;2023-02-02T08:20:36;100645.94;;;6.31;91.37
47524;BME280;33253;42.144;25.884;2023-02-02T08:23:01;100654.41;;;6.45;92.69
47524;BME280;33253;42.144;25.884;2023-02-02T08:25:27;100652.38;;;6.54;92.21
47524;BME280;33253;42.144;25.884;2023-02-02T08:27:53;100649.44;;;6.63;90.35
47524;BME280;33253;42.144;25.884;2023-02-02T08:30:19;100643.09;;;6.73;91.34
47524;BME280;33253;42.144;25.884;2023-02-02T08:32:44;100622.88;;;6.62;90.63
47524;BME280;33253;42.144;25.884;2023-02-02T08:35:10;100647.53;;;6.75;89.32
47524;BME280;33253;42.144;25.884;2023-02-02T08:37:37;100648.00;;;7.00;90.37
47524;BME280;33253;42.144;25.884;2023-02-02T08:40:03;100621.31;;;6.81;88.98
47524;BME280;33253;42.144;25.884;2023-02-02T08:42:28;100656.66;;;7.02;89.12
47524;BME280;33253;42.144;25.884;2023-02-02T08:44:53;100657.00;;;7.08;88.57
47524;BME280;33253;42.144;25.884;2023-02-02T08:47:19;100662.53;;;7.16;87.53
47524;BME280;33253;42.144;25.884;2023-02-02T08:49:44;100662.22;;;7.09;86.92
47524;BME280;33253;42.144;25.884;2023-02-02T08:52:10;100639.84;;;7.23;87.41
47524;BME280;33253;42.144;25.884;2023-02-02T08:54:36;100642.72;;;7.29;87.25
47524;BME280;33253;42.144;25.884;2023-02-02T08:57:01;100636.31;;;7.38;87.45
47524;BME280;33253;42.144;25.884;2023-02-02T08:59:27;100640.09;;;7.44;84.96
47524;BME280;33253;42.144;25.884;2023-02-02T09:01:52;100610.31;;;7.32;84.69
47524;BME280;33253;42.144;25.884;2023-02-02T09:04:18;100642.41;;;7.56;84.69
47524;BME280;33253;42.144;25.884;2023-02-02T09:06:45;100621.53;;;7.67;85.50
47524;BME280;33253;42.144;25.884;2023-02-02T09:09:13;100636.13;;;7.84;83.30
47524;BME280;33253;42.144;25.884;2023-02-02T09:11:40;100629.75;;;7.94;81.52
47524;BME280;33253;42.144;25.884;2023-02-02T09:14:06;100634.91;;;7.94;80.92
47524;BME280;33253;42.144;25.884;2023-02-02T09:16:33;100627.38;;;8.15;80.01
47524;BME280;33253;42.144;25.884;2023-02-02T09:18:59;100619.22;;;8.24;80.51
47524;BME280;33253;42.144;25.884;2023-02-02T09:21:24;100627.44;;;8.35;78.34
47524;BME280;33253;42.144;25.884;2023-02-02T09:23:51;100607.53;;;8.31;77.32
47524;BME280;33253;42.144;25.884;2023-02-02T09:26:18;100577.00;;;8.38;78.61
47524;BME280;33253;42.144;25.884;2023-02-02T09:28:48;100612.09;;;8.54;78.53
47524;BME280;33253;42.144;25.884;2023-02-02T09:31:14;100525.69;;;8.04;78.72
47524;BME280;33253;42.144;25.884;2023-02-02T09:33:41;100575.78;;;8.48;76.34
47524;BME280;33253;42.144;25.884;2023-02-02T09:36:09;100622.47;;;8.74;76.37
47524;BME280;33253;42.144;25.884;2023-02-02T09:38:36;100609.16;;;8.65;76.15
47524;BME280;33253;42.144;25.884;2023-02-02T09:49:12;100596.38;;;9.04;73.20
47524;BME280;33253;42.144;25.884;2023-02-02T09:51:45;100555.75;;;8.98;72.91
47524;BME280;33253;42.144;25.884;2023-02-02T09:54:20;100564.59;;;9.03;74.03
47524;BME280;33253;42.144;25.884;2023-02-02T09:56:50;100584.09;;;9.37;74.68
47524;BME280;33253;42.144;25.884;2023-02-02T09:59:34;100542.28;;;9.04;73.04
47524;BME280;33253;42.144;25.884;2023-02-02T10:02:15;100564.84;;;9.49;75.96
47524;BME280;33253;42.144;25.884;2023-02-02T10:04:44;100562.72;;;9.60;73.75
47524;BME280;33253;42.144;25.884;2023-02-02T10:07:18;100556.50;;;9.54;70.74
47524;BME280;33253;42.144;25.884;2023-02-02T10:09:59;100501.59;;;9.36;69.34
47524;BME280;33253;42.144;25.884;2023-02-02T10:12:38;100532.03;;;9.66;68.15
47524;BME280;33253;42.144;25.884;2023-02-02T10:18:03;100539.59;;;9.82;65.67
47524;BME280;33253;42.144;25.884;2023-02-02T10:23:02;100515.06;;;9.92;66.63
47524;BME280;33253;42.144;25.884;2023-02-02T10:25:29;100508.19;;;9.93;65.49
47524;BME280;33253;42.144;25.884;2023-02-02T10:28:05;100502.94;;;10.12;67.53
47524;BME280;33253;42.144;25.884;2023-02-02T10:30:44;100517.97;;;10.23;65.01
47524;BME280;33253;42.144;25.884;2023-02-02T10:33:31;100504.47;;;10.07;63.84
47524;BME280;33253;42.144;25.884;2023-02-02T10:36:19;100490.91;;;10.13;62.53
47524;BME280;33253;42.144;25.884;2023-02-02T10:38:59;100505.16;;;10.03;60.43
47524;BME280;33253;42.144;25.884;2023-02-02T10:47:03;100502.94;;;9.90;55.71
47524;BME280;33253;42.144;25.884;2023-02-02T10:49:36;100497.88;;;9.93;54.32
47524;BME280;33253;42.144;25.884;2023-02-02T10:52:15;100507.63;;;10.00;54.72
47524;BME280;33253;42.144;25.884;2023-02-02T11:00:18;100471.53;;;10.23;56.59
47524;BME280;33253;42.144;25.884;2023-02-02T11:02:46;100457.63;;;10.19;55.90
47524;BME280;33253;42.144;25.884;2023-02-02T11:05:26;100467.81;;;10.37;55.44
47524;BME280;33253;42.144;25.884;2023-02-02T11:08:24;100472.47;;;10.25;52.58
47524;BME280;33253;42.144;25.884;2023-02-02T11:10:54;100466.38;;;10.45;54.43
47524;BME280;33253;42.144;25.884;2023-02-02T11:13:32;100461.88;;;10.40;52.90
47524;BME280;33253;42.144;25.884;2023-02-02T11:18:40;100460.34;;;10.45;51.93
47524;BME280;33253;42.144;25.884;2023-02-02T11:21:17;100416.47;;;10.22;49.82
47524;BME280;33253;42.144;25.884;2023-02-02T11:24:01;100448.72;;;10.56;49.43
47524;BME280;33253;42.144;25.884;2023-02-02T11:26:49;100440.13;;;10.81;50.16
47524;BME280;33253;42.144;25.884;2023-02-02T11:29:31;100438.75;;;10.65;48.08
47524;BME280;33253;42.144;25.884;2023-02-02T11:31:57;100440.03;;;10.78;49.31
47524;BME280;33253;42.144;25.884;2023-02-02T11:34:41;100423.25;;;10.65;48.40
47524;BME280;33253;42.144;25.884;2023-02-02T11:37:18;100397.84;;;10.54;49.40
47524;BME280;33253;42.144;25.884;2023-02-02T11:39:44;100419.34;;;10.77;48.95
47524;BME280;33253;42.144;25.884;2023-02-02T11:42:18;100422.50;;;10.94;48.17
47524;BME280;33253;42.144;25.884;2023-02-02T11:44:53;100398.84;;;10.57;47.42
47524;BME280;33253;42.144;25.884;2023-02-02T11:47:31;100400.84;;;10.64;47.78
47524;BME280;33253;42.144;25.884;2023-02-02T11:50:00;100399.50;;;10.76;46.67
47524;BME280;33253;42.144;25.884;2023-02-02T11:52:28;100399.03;;;10.88;47.86
47524;BME280;33253;42.144;25.884;2023-02-02T11:55:00;100404.28;;;10.89;48.58
47524;BME280;33253;42.144;25.884;2023-02-02T11:57:27;100394.34;;;10.76;49.45
47524;BME280;33253;42.144;25.884;2023-02-02T12:02:33;100389.38;;;10.82;47.87
47524;BME280;33253;42.144;25.884;2023-02-02T12:07:43;100368.25;;;10.94;45.67
47524;BME280;33253;42.144;25.884;2023-02-02T12:10:24;100321.56;;;10.88;46.88
47524;BME280;33253;42.144;25.884;2023-02-02T12:16:16;100357.66;;;10.86;46.97
47524;BME280;33253;42.144;25.884;2023-02-02T12:21:49;100355.03;;;10.84;47.98
47524;BME280;33253;42.144;25.884;2023-02-02T12:24:33;100366.31;;;10.87;47.95
47524;BME280;33253;42.144;25.884;2023-02-02T12:32:59;100351.88;;;10.67;47.01
47524;BME280;33253;42.144;25.884;2023-02-02T12:35:47;100357.72;;;10.88;46.62
47524;BME280;33253;42.144;25.884;2023-02-02T12:44:03;100319.09;;;10.91;46.20
47524;BME280;33253;42.144;25.884;2023-02-02T12:46:43;100352.94;;;11.26;43.19
47524;BME280;33253;42.144;25.884;2023-02-02T13:05:48;100340.72;;;10.94;44.84
47524;BME280;33253;42.144;25.884;2023-02-02T13:08:25;100320.72;;;10.89;44.73
47524;BME280;33253;42.144;25.884;2023-02-02T13:11:16;100339.22;;;11.01;44.02
47524;BME280;33253;42.144;25.884;2023-02-02T13:13:59;100346.34;;;11.08;43.53
47524;BME280;33253;42.144;25.884;2023-02-02T13:16:28;100335.59;;;10.96;45.42
47524;BME280;33253;42.144;25.884;2023-02-02T13:19:01;100337.41;;;10.98;44.16
47524;BME280;33253;42.144;25.884;2023-02-02T13:21:29;100343.88;;;10.86;42.75
47524;BME280;33253;42.144;25.884;2023-02-02T13:23:58;100344.53;;;10.80;43.29
47524;BME280;33253;42.144;25.884;2023-02-02T13:26:35;100345.66;;;10.87;43.14
47524;BME280;33253;42.144;25.884;2023-02-02T13:31:48;100340.41;;;10.85;44.20
47524;BME280;33253;42.144;25.884;2023-02-02T13:34:37;100335.84;;;10.78;46.75
47524;BME280;33253;42.144;25.884;2023-02-02T13:37:41;100342.53;;;10.71;46.81
47524;BME280;33253;42.144;25.884;2023-02-02T13:40:29;100301.75;;;10.36;46.57
47524;BME280;33253;42.144;25.884;2023-02-02T13:43:21;100326.66;;;10.60;47.41
47524;BME280;33253;42.144;25.884;2023-02-02T13:46:09;100314.47;;;10.56;47.74
47524;BME280;33253;42.144;25.884;2023-02-02T13:51:56;100309.31;;;10.56;47.96
47524;BME280;33253;42.144;25.884;2023-02-02T14:02:41;100282.44;;;10.49;48.30
47524;BME280;33253;42.144;25.884;2023-02-02T14:05:36;100299.13;;;10.59;49.41
47524;BME280;33253;42.144;25.884;2023-02-02T14:10:41;100296.25;;;10.51;51.31
47524;BME280;33253;42.144;25.884;2023-02-02T14:13:16;100293.44;;;10.45;51.03
47524;BME280;33253;42.144;25.884;2023-02-02T14:16:03;100288.94;;;10.38;50.20
47524;BME280;33253;42.144;25.884;2023-02-02T14:26:45;100287.78;;;10.31;50.82
47524;BME280;33253;42.144;25.884;2023-02-02T14:34:28;100247.22;;;10.03;50.05
47524;BME280;33253;42.144;25.884;2023-02-02T14:42:46;100302.50;;;10.10;51.25
47524;BME280;33253;42.144;25.884;2023-02-02T14:48:20;100311.56;;;9.98;51.77
47524;BME280;33253;42.144;25.884;2023-02-02T14:50:55;100310.56;;;9.95;51.68
47524;BME280;33253;42.144;25.884;2023-02-02T14:53:33;100301.06;;;9.94;52.09
47524;BME280;33253;42.144;25.884;2023-02-02T14:56:02;100290.56;;;9.89;52.78
47524;BME280;33253;42.144;25.884;2023-02-02T14:58:32;100301.72;;;9.88;53.65
47524;BME280;33253;42.144;25.884;2023-02-02T15:04:30;100301.56;;;9.83;52.84
47524;BME280;33253;42.144;25.884;2023-02-02T15:06:55;100317.63;;;9.76;53.16
47524;BME280;33253;42.144;25.884;2023-02-02T15:09:41;100298.53;;;9.71;53.03